หน้าหลัก
METAR-TAF:

METAR-TAF

ท่าอากาศยาน :

Piggs Peak, สวาซิแลนด์

ละติจูด: 25-58-04S, ลองจิจูด: 31-15-03E, ความสูง: 1099 ม.

การสังเกตสภาพอากาศปัจจุบัน

รายงานได้ทำขึ้นเมื่อ 56 นาทีที่แล้ว ณ เวลา 18:00 UTC
ลม 10 นอตจากตะวันออก
อุณหภูมิ 17°C
ความชื้น 94%
ความกดอากาศ 1028 hPa

METAR: FDPP 151800Z AUTO 08010KT //// // ////// 17/16 Q1028

เวลา: 20:56 (18:56 UTC)


TAF: หายไป

สังเกตการณ์สภาพอากาศและพยากรณ์อากาศของสนามบินมากกว่า 4000 แห่ง (รายงาน METAR และ TAF).

สถานีที่ดูได้จะแสดงไว้ด้วยจุดสีเหลืองและสีแดงบนแผนที่.

เลื่อนเมาส์ไปเหนือจุดเพื่อดูชื่อสถานี.

แล้วคลิกเพื่อดูสังเกตการณ์และการพยากรณ์สภาพอากาศ.

ในการเปลี่ยนแผนที่: คลิกที่ปุ่มสีเขียวที่มีกากบาทสีดำเพื่อซูมเข้า; ที่ปุ่มสีเขียวที่มีขีดเพื่อซูมออก; หรือที่ลูกศรสีเขียวเพื่อไปยังแผนที่ที่อยู่ติดกัน.


METAR-TAF: